Time;durP1;ratioP1;P1;durP2;ratioP2;P2;SDS_P1;SDS_P2;PMS_P1;PMS_P2;Temp;Humidity;BMP_temperature;BMP_pressure;BME280_temperature;BME280_humidity;BME280_pressure;Samples;Min_cycle;Max_cycle;Signal;HPM_P1;HPM_P2
2023/01/16 00:01:12;;;;;;;0.47;0.22;;;4.50;75.50;;;;;;5007376;28;20108;-60
2023/01/16 00:03:37;;;;;;;1.20;0.30;;;4.50;75.40;;;;;;5006603;28;20057;-61
2023/01/16 00:06:03;;;;;;;0.57;0.20;;;4.50;75.50;;;;;;5007586;28;20676;-60
2023/01/16 00:08:28;;;;;;;4.05;0.40;;;4.60;75.50;;;;;;5004705;28;20037;-59
2023/01/16 00:10:54;;;;;;;0.95;0.38;;;4.50;75.40;;;;;;5006860;28;20044;-62
2023/01/16 00:13:20;;;;;;;2.95;0.35;;;4.50;75.40;;;;;;5008787;28;20741;-62
2023/01/16 00:15:47;;;;;;;0.60;0.20;;;4.60;75.50;;;;;;5007585;28;20034;-62
2023/01/16 00:18:13;;;;;;;1.48;0.50;;;4.60;75.30;;;;;;5006995;28;20505;-62
2023/01/16 00:20:38;;;;;;;1.02;0.22;;;4.60;75.30;;;;;;5006456;28;20038;-62
2023/01/16 00:23:04;;;;;;;1.45;0.35;;;4.60;75.20;;;;;;5007513;28;20033;-61
2023/01/16 00:25:30;;;;;;;3.00;0.47;;;4.60;75.20;;;;;;5008727;28;20069;-62
2023/01/16 00:27:55;;;;;;;1.00;0.30;;;4.60;75.20;;;;;;5010610;28;20037;-60
2023/01/16 00:30:21;;;;;;;1.50;0.25;;;4.50;75.10;;;;;;5008121;28;20105;-62
2023/01/16 00:32:46;;;;;;;1.15;0.40;;;4.60;75.10;;;;;;5010889;28;20038;-62
2023/01/16 00:35:12;;;;;;;1.92;0.30;;;4.50;75.00;;;;;;5009826;28;20045;-62
2023/01/16 00:37:38;;;;;;;0.80;0.30;;;4.60;75.20;;;;;;5009479;28;20670;-61
2023/01/16 00:40:04;;;;;;;2.72;0.40;;;4.60;75.10;;;;;;5010888;28;20513;-61
2023/01/16 00:42:29;;;;;;;1.80;0.30;;;4.60;75.10;;;;;;5014278;28;20069;-61
2023/01/16 00:44:55;;;;;;;1.05;0.30;;;4.60;75.00;;;;;;5012301;28;20070;-61
2023/01/16 00:47:21;;;;;;;0.90;0.30;;;4.60;74.90;;;;;;5013472;28;20037;-60
2023/01/16 00:49:46;;;;;;;1.08;0.43;;;4.60;74.80;;;;;;5009857;28;20089;-60
2023/01/16 00:52:12;;;;;;;2.85;0.57;;;4.60;74.90;;;;;;5013855;28;20034;-59
2023/01/16 00:54:37;;;;;;;2.28;0.60;;;4.50;74.80;;;;;;5009461;28;20059;-60
2023/01/16 00:57:03;;;;;;;3.53;1.40;;;4.50;74.80;;;;;;5011026;28;20062;-60
2023/01/16 00:59:28;;;;;;;3.78;1.00;;;4.60;74.60;;;;;;5007302;28;20034;-60
2023/01/16 01:01:54;;;;;;;1.33;0.65;;;4.50;74.60;;;;;;5008985;28;20037;-58
2023/01/16 01:04:20;;;;;;;4.25;0.80;;;4.50;74.70;;;;;;5012250;28;20413;-58
2023/01/16 01:06:45;;;;;;;3.53;1.10;;;4.50;74.80;;;;;;5006698;28;20034;-59
2023/01/16 01:09:11;;;;;;;4.63;0.80;;;4.50;74.80;;;;;;5016097;28;20256;-59
2023/01/16 01:11:36;;;;;;;2.17;0.50;;;4.50;74.80;;;;;;5020834;28;20038;-60
2023/01/16 01:14:02;;;;;;;3.08;0.52;;;4.50;74.90;;;;;;5015867;28;20056;-59
2023/01/16 01:16:28;;;;;;;1.60;0.35;;;4.50;74.80;;;;;;5016456;28;20037;-61
2023/01/16 01:18:54;;;;;;;0.45;0.20;;;4.50;74.70;;;;;;5015995;28;20029;-60
2023/01/16 01:21:20;;;;;;;2.15;0.30;;;4.50;74.50;;;;;;5016660;28;20638;-59
2023/01/16 01:23:45;;;;;;;1.27;0.38;;;4.50;74.40;;;;;;5016111;28;20155;-60
2023/01/16 01:26:14;;;;;;;1.98;0.47;;;4.50;74.50;;;;;;5016208;28;20091;-60
2023/01/16 01:28:40;;;;;;;3.00;0.40;;;4.50;74.50;;;;;;5015867;28;20333;-59
2023/01/16 01:31:08;;;;;;;1.45;0.50;;;4.50;74.50;;;;;;5013788;28;20037;-58
2023/01/16 01:33:33;;;;;;;3.40;0.50;;;4.50;74.50;;;;;;5013260;28;20543;-59
2023/01/16 01:35:59;;;;;;;1.25;0.40;;;4.50;74.50;;;;;;5012677;28;20084;-58
2023/01/16 01:38:25;;;;;;;2.28;0.40;;;4.50;74.40;;;;;;5013020;28;20045;-60
2023/01/16 01:40:51;;;;;;;0.93;0.30;;;4.50;74.40;;;;;;5011912;28;20992;-61
2023/01/16 01:43:16;;;;;;;2.20;0.32;;;4.50;74.40;;;;;;5015717;28;20044;-57
2023/01/16 01:45:48;;;;;;;2.65;0.40;;;4.50;74.40;;;;;;5014273;28;20061;-60
2023/01/16 01:48:14;;;;;;;1.52;0.30;;;4.50;74.20;;;;;;5014061;28;20034;-59
2023/01/16 01:50:58;;;;;;;3.17;0.50;;;4.50;74.30;;;;;;5014448;28;20400;-56
2023/01/16 01:53:31;;;;;;;0.88;0.30;;;4.40;74.30;;;;;;5015186;28;20045;-59
2023/01/16 01:56:02;;;;;;;1.05;0.20;;;4.50;74.60;;;;;;5014373;28;20034;-59
2023/01/16 01:58:28;;;;;;;2.30;0.40;;;4.50;74.60;;;;;;5013230;28;20400;-61
2023/01/16 02:00:57;;;;;;;3.53;0.60;;;4.50;75.50;;;;;;5016097;28;20045;-61
2023/01/16 02:03:44;;;;;;;2.15;0.40;;;4.50;74.60;;;;;;5016847;28;20029;-60
2023/01/16 02:06:19;;;;;;;2.67;0.30;;;4.40;74.60;;;;;;5002581;28;20123;-60
2023/01/16 02:08:46;;;;;;;;;;;4.50;74.80;;;;;;5010401;28;20414;-61
2023/01/16 02:11:25;;;;;;;1.88;0.30;;;4.50;74.80;;;;;;5003790;28;19968;-58
2023/01/16 02:13:57;;;;;;;2.20;0.30;;;4.50;74.60;;;;;;5008757;28;20029;-59
2023/01/16 02:19:27;;;;;;;1.70;0.70;;;4.40;74.60;;;;;;5005759;28;20052;-59
2023/01/16 02:22:01;;;;;;;;;;;4.40;74.70;;;;;;5006453;28;20045;-61
2023/01/16 02:24:59;;;;;;;4.13;0.88;;;4.40;74.70;;;;;;5003669;28;20023;-62
2023/01/16 02:28:09;;;;;;;4.20;1.00;;;4.20;74.40;;;;;;5003094;28;20541;-61
2023/01/16 02:31:02;;;;;;;2.35;0.88;;;4.30;74.50;;;;;;5013002;28;20037;-61
2023/01/16 02:33:42;;;;;;;2.80;0.60;;;4.20;74.50;;;;;;5012899;28;20045;-61
2023/01/16 02:36:20;;;;;;;2.67;0.80;;;4.10;74.50;;;;;;5012354;28;20026;-61
2023/01/16 02:39:09;;;;;;;2.90;0.40;;;4.00;74.60;;;;;;5012969;28;20042;-61
2023/01/16 02:42:13;;;;;;;4.30;0.60;;;3.90;74.80;;;;;;5012967;28;20033;-61
2023/01/16 02:44:47;;;;;;;2.90;0.52;;;3.90;75.20;;;;;;5013952;28;20333;-61
2023/01/16 02:47:31;;;;;;;3.55;0.70;;;3.80;75.30;;;;;;5009504;28;20045;-60
2023/01/16 02:50:02;;;;;;;2.00;0.50;;;3.70;75.60;;;;;;5008855;28;20025;-60
2023/01/16 02:52:27;;;;;;;2.38;0.82;;;3.60;75.60;;;;;;5009452;28;20034;-59
2023/01/16 02:55:02;;;;;;;1.75;0.70;;;3.60;75.80;;;;;;5013738;28;20030;-59
2023/01/16 02:57:34;;;;;;;0.98;0.40;;;3.60;76.00;;;;;;5012775;28;20588;-60
2023/01/16 03:00:01;;;;;;;2.30;0.60;;;3.50;76.10;;;;;;5013682;28;20099;-60
2023/01/16 03:02:27;;;;;;;1.58;0.60;;;3.50;76.50;;;;;;5013872;28;20036;-58
2023/01/16 03:04:53;;;;;;;1.67;0.47;;;3.40;76.40;;;;;;5010503;28;20042;-59
2023/01/16 03:07:57;;;;;;;1.77;0.50;;;3.40;76.50;;;;;;5009363;28;20116;-59
2023/01/16 03:10:34;;;;;;;1.15;0.73;;;3.40;76.80;;;;;;5006588;28;20049;-60
2023/01/16 03:13:28;;;;;;;1.25;0.50;;;3.40;76.60;;;;;;5007519;28;20039;-59
2023/01/16 03:16:18;;;;;;;2.15;0.40;;;3.40;76.80;;;;;;5012619;28;20037;-60
2023/01/16 03:19:04;;;;;;;0.90;0.65;;;3.40;76.90;;;;;;5008107;28;20049;-60
2023/01/16 03:21:42;;;;;;;1.20;0.60;;;3.40;76.90;;;;;;5009906;28;20129;-57
2023/01/16 03:24:16;;;;;;;2.38;0.60;;;3.40;76.90;;;;;;5005109;28;20088;-60
2023/01/16 03:26:52;;;;;;;1.30;0.55;;;3.40;76.90;;;;;;5006225;28;20037;-59
2023/01/16 03:29:39;;;;;;;1.77;0.50;;;3.40;77.10;;;;;;5007537;28;20096;-60
2023/01/16 03:32:36;;;;;;;1.58;0.43;;;3.40;77.10;;;;;;5013527;28;20042;-59
2023/01/16 03:35:12;;;;;;;1.10;0.55;;;3.40;77.20;;;;;;5012985;28;20054;-60
2023/01/16 03:37:57;;;;;;;0.65;0.40;;;3.40;77.00;;;;;;5015228;28;20538;-56
2023/01/16 03:40:31;;;;;;;1.55;0.45;;;3.40;77.10;;;;;;5011750;28;20038;-57
2023/01/16 03:43:03;;;;;;;3.03;0.88;;;3.40;77.10;;;;;;5012666;28;20108;-60
2023/01/16 03:45:32;;;;;;;1.50;0.70;;;3.40;76.90;;;;;;5009937;28;20038;-59
2023/01/16 03:48:19;;;;;;;1.95;0.60;;;3.40;76.90;;;;;;5013186;28;20030;-59
2023/01/16 03:50:55;;;;;;;1.77;0.60;;;3.30;76.90;;;;;;5013121;28;20056;-59
2023/01/16 03:53:28;;;;;;;1.65;0.47;;;3.30;76.90;;;;;;5013610;28;20121;-60
2023/01/16 03:55:59;;;;;;;2.33;0.43;;;3.20;76.90;;;;;;5009903;28;20126;-59
2023/01/16 03:58:30;;;;;;;0.45;0.38;;;3.30;77.00;;;;;;5011919;28;20057;-61
2023/01/16 04:01:05;;;;;;;1.33;0.60;;;3.30;77.00;;;;;;5009432;28;20500;-60
2023/01/16 04:03:46;;;;;;;1.35;0.60;;;3.30;77.10;;;;;;5012107;28;20034;-60
2023/01/16 04:06:19;;;;;;;0.50;0.40;;;3.30;77.20;;;;;;5009107;28;20045;-61
2023/01/16 04:08:46;;;;;;;0.95;0.43;;;3.30;77.20;;;;;;5008527;28;20473;-60
2023/01/16 04:11:14;;;;;;;1.95;0.80;;;3.30;77.20;;;;;;5010956;28;20037;-60
2023/01/16 04:13:44;;;;;;;0.90;0.50;;;3.30;77.10;;;;;;5008677;28;20386;-60
2023/01/16 04:16:14;;;;;;;1.95;0.40;;;3.30;77.10;;;;;;5011686;28;20083;-60
2023/01/16 04:18:40;;;;;;;2.08;0.40;;;3.30;77.10;;;;;;5011949;28;20034;-59
2023/01/16 04:21:07;;;;;;;1.40;0.50;;;3.40;77.20;;;;;;5012509;28;20491;-58
2023/01/16 04:23:34;;;;;;;1.45;0.70;;;3.40;77.30;;;;;;5007585;28;20403;-58
2023/01/16 04:26:00;;;;;;;0.70;0.68;;;3.40;77.20;;;;;;5009309;28;20037;-59
2023/01/16 04:28:25;;;;;;;1.15;0.60;;;3.40;77.10;;;;;;5006624;28;20045;-61
2023/01/16 04:30:51;;;;;;;0.82;0.50;;;3.40;77.10;;;;;;5006862;28;20560;-60
2023/01/16 04:33:16;;;;;;;1.40;0.50;;;3.40;77.10;;;;;;5009731;28;20034;-58
2023/01/16 04:35:42;;;;;;;0.52;0.32;;;3.40;77.80;;;;;;5008392;28;20046;-61
2023/01/16 04:38:07;;;;;;;1.20;0.65;;;3.40;76.90;;;;;;5006346;28;20038;-58
2023/01/16 04:40:33;;;;;;;3.20;0.70;;;3.40;76.90;;;;;;5008255;28;20161;-58
2023/01/16 04:42:59;;;;;;;1.63;0.57;;;3.40;76.90;;;;;;5010858;28;20060;-61
2023/01/16 04:45:24;;;;;;;1.60;0.70;;;3.40;76.90;;;;;;5008143;28;20049;-60
2023/01/16 04:47:51;;;;;;;1.60;0.80;;;3.40;77.70;;;;;;5006698;28;20065;-58
2023/01/16 04:50:18;;;;;;;1.77;0.70;;;3.40;76.90;;;;;;5008048;28;20041;-58
2023/01/16 04:52:44;;;;;;;0.60;0.50;;;3.40;76.90;;;;;;5006621;28;20034;-56
2023/01/16 04:55:10;;;;;;;1.27;0.82;;;3.40;76.80;;;;;;5007162;28;20148;-59
2023/01/16 04:57:36;;;;;;;1.60;0.63;;;3.40;76.90;;;;;;5008841;28;20120;-59
2023/01/16 05:00:05;;;;;;;1.23;0.40;;;3.40;77.70;;;;;;5004434;28;20046;-60
2023/01/16 05:02:30;;;;;;;1.40;0.60;;;3.40;76.80;;;;;;5008686;28;20134;-59
2023/01/16 05:04:56;;;;;;;1.83;0.65;;;3.40;76.70;;;;;;5006363;28;20100;-59
2023/01/16 05:07:21;;;;;;;6.45;2.03;;;3.30;77.50;;;;;;5009864;28;20037;-60
2023/01/16 05:09:47;;;;;;;3.40;1.50;;;3.30;76.70;;;;;;5011359;28;20095;-59
2023/01/16 05:12:12;;;;;;;2.85;1.25;;;3.30;76.70;;;;;;5007068;28;20524;-60
2023/01/16 05:14:38;;;;;;;3.40;1.33;;;3.30;76.70;;;;;;5007977;28;20072;-57
2023/01/16 05:17:04;;;;;;;3.25;1.25;;;3.20;76.70;;;;;;5005803;28;20147;-59
2023/01/16 05:19:29;;;;;;;2.13;0.95;;;3.20;76.80;;;;;;5007448;28;20141;-60
2023/01/16 05:21:55;;;;;;;2.28;0.82;;;3.20;76.90;;;;;;5007646;28;20571;-60
2023/01/16 05:24:20;;;;;;;1.98;0.70;;;3.20;76.90;;;;;;5006489;28;20078;-58
2023/01/16 05:26:46;;;;;;;1.33;0.73;;;3.10;76.90;;;;;;5006633;28;20042;-59
2023/01/16 05:29:11;;;;;;;2.17;0.80;;;3.10;77.00;;;;;;5010692;28;20040;-58
2023/01/16 05:31:37;;;;;;;3.17;0.90;;;3.10;77.00;;;;;;5011005;28;20499;-60
2023/01/16 05:34:03;;;;;;;2.35;1.08;;;3.10;76.90;;;;;;5013216;28;20575;-59
2023/01/16 05:36:28;;;;;;;2.47;0.82;;;3.10;76.90;;;;;;5013308;28;20542;-59
2023/01/16 05:38:54;;;;;;;4.22;1.00;;;3.10;76.80;;;;;;5011754;28;20447;-61
2023/01/16 05:41:20;;;;;;;1.95;0.93;;;3.10;76.80;;;;;;5014479;28;20037;-60
2023/01/16 05:43:45;;;;;;;3.33;1.75;;;3.10;76.80;;;;;;5012859;28;20046;-59
2023/01/16 05:46:11;;;;;;;8.77;2.30;;;3.10;76.70;;;;;;5014773;28;20033;-60
2023/01/16 05:48:38;;;;;;;4.95;2.33;;;3.10;76.70;;;;;;5011154;28;20033;-61
2023/01/16 05:51:04;;;;;;;4.75;2.35;;;3.00;76.70;;;;;;5014841;28;20511;-59
2023/01/16 05:53:30;;;;;;;6.30;1.90;;;3.00;76.80;;;;;;5013735;28;20064;-60
2023/01/16 05:55:56;;;;;;;2.85;1.58;;;3.00;76.80;;;;;;5015240;28;20417;-61
2023/01/16 05:58:22;;;;;;;2.45;1.63;;;3.00;76.90;;;;;;5014687;28;20037;-60
2023/01/16 06:00:48;;;;;;;2.80;2.00;;;2.90;76.90;;;;;;5011217;28;20033;-61
2023/01/16 06:03:15;;;;;;;3.22;1.70;;;2.90;76.90;;;;;;5014617;28;20398;-61
2023/01/16 06:05:41;;;;;;;2.42;1.80;;;2.90;76.90;;;;;;5011951;28;20516;-60
2023/01/16 06:08:07;;;;;;;3.35;1.40;;;2.90;77.00;;;;;;5013189;28;20118;-60
2023/01/16 06:10:33;;;;;;;2.72;1.42;;;2.80;76.90;;;;;;5008261;28;20494;-60
2023/01/16 06:13:00;;;;;;;3.03;1.70;;;2.80;77.00;;;;;;5012182;28;20041;-59
2023/01/16 06:15:26;;;;;;;5.50;2.00;;;2.80;77.10;;;;;;5014396;28;20077;-57
2023/01/16 06:17:53;;;;;;;2.95;2.00;;;2.80;77.10;;;;;;5014170;28;20057;-58
2023/01/16 06:20:19;;;;;;;2.78;1.63;;;2.70;77.10;;;;;;5012469;28;20067;-58
2023/01/16 06:22:45;;;;;;;2.92;1.80;;;2.70;77.10;;;;;;5014425;28;21233;-61
2023/01/16 06:25:11;;;;;;;4.05;2.20;;;2.70;77.30;;;;;;5017237;28;20079;-60
2023/01/16 06:27:37;;;;;;;5.18;3.10;;;2.70;77.40;;;;;;5016982;28;20168;-59
2023/01/16 06:30:04;;;;;;;6.15;3.65;;;2.60;77.30;;;;;;5014360;28;20121;-60
2023/01/16 06:32:30;;;;;;;6.60;2.70;;;2.50;77.20;;;;;;5017099;28;20069;-57
2023/01/16 06:34:55;;;;;;;7.63;3.50;;;2.60;77.30;;;;;;5017838;28;20052;-58
2023/01/16 06:37:21;;;;;;;5.25;3.33;;;2.60;77.30;;;;;;5017674;28;20421;-58
2023/01/16 06:39:46;;;;;;;5.07;3.05;;;2.60;77.30;;;;;;5015053;28;20032;-58
2023/01/16 06:42:12;;;;;;;3.78;2.38;;;2.50;77.30;;;;;;5017468;28;20269;-57
2023/01/16 06:44:38;;;;;;;5.40;1.67;;;2.50;77.30;;;;;;5014422;28;20025;-59
2023/01/16 06:47:04;;;;;;;1.90;1.30;;;2.50;77.40;;;;;;5016076;28;20065;-58
2023/01/16 06:49:29;;;;;;;2.70;1.30;;;2.50;77.40;;;;;;5015515;28;20034;-57
2023/01/16 06:51:55;;;;;;;2.70;1.50;;;2.50;77.40;;;;;;5016013;28;20634;-56
2023/01/16 06:54:20;;;;;;;2.85;1.60;;;2.40;77.40;;;;;;5016343;28;20064;-58
2023/01/16 06:56:46;;;;;;;4.00;1.70;;;2.40;77.50;;;;;;5016372;28;20038;-58
2023/01/16 06:59:11;;;;;;;3.25;1.45;;;2.40;77.40;;;;;;5015688;28;20295;-58
2023/01/16 07:01:37;;;;;;;2.90;1.65;;;2.30;77.40;;;;;;5016645;28;20726;-59
2023/01/16 07:04:03;;;;;;;3.58;1.67;;;2.30;77.40;;;;;;5014508;28;20034;-59
2023/01/16 07:06:28;;;;;;;2.90;1.80;;;2.30;77.50;;;;;;5016915;28;20479;-59
2023/01/16 07:08:54;;;;;;;4.00;1.98;;;2.20;78.40;;;;;;5014344;28;20032;-58
2023/01/16 07:11:19;;;;;;;4.10;2.40;;;2.20;77.60;;;;;;5015883;28;20034;-56
2023/01/16 07:13:45;;;;;;;4.03;2.20;;;2.20;77.80;;;;;;5016154;28;20034;-58
2023/01/16 07:24:37;;;;;;;4.65;2.17;;;2.20;78.20;;;;;;5015354;28;20461;-57
2023/01/16 07:27:05;;;;;;;3.28;1.85;;;2.20;78.30;;;;;;5014884;28;20508;-57
2023/01/16 07:29:33;;;;;;;2.92;1.83;;;2.20;78.30;;;;;;5013828;28;20041;-58
2023/01/16 07:32:01;;;;;;;3.03;1.70;;;2.20;78.50;;;;;;5016326;28;20030;-57
2023/01/16 07:34:27;;;;;;;3.05;1.60;;;2.20;78.60;;;;;;5016777;28;20045;-57
2023/01/16 07:36:52;;;;;;;2.75;2.15;;;2.20;78.50;;;;;;5012236;28;20127;-59
2023/01/16 07:39:18;;;;;;;3.38;1.67;;;2.30;78.50;;;;;;5016259;28;20029;-58
2023/01/16 07:41:44;;;;;;;4.10;2.00;;;2.30;78.60;;;;;;5015435;28;20107;-58
2023/01/16 07:44:10;;;;;;;2.85;1.70;;;2.30;78.60;;;;;;5013508;28;20592;-58
2023/01/16 07:46:35;;;;;;;3.67;1.60;;;2.30;78.60;;;;;;5013121;28;20468;-60
2023/01/16 07:49:01;;;;;;;2.38;1.20;;;2.40;78.70;;;;;;5015363;28;20128;-61
2023/01/16 07:51:27;;;;;;;2.58;1.02;;;2.40;78.70;;;;;;5013858;28;20046;-61
2023/01/16 07:53:52;;;;;;;1.52;1.20;;;2.40;78.70;;;;;;5016232;28;20081;-62
2023/01/16 07:56:18;;;;;;;2.17;1.10;;;2.50;78.60;;;;;;5015477;28;20119;-60
2023/01/16 07:58:44;;;;;;;4.57;1.20;;;2.50;78.70;;;;;;5014433;28;20697;-60
2023/01/16 08:01:10;;;;;;;1.98;1.15;;;2.60;78.70;;;;;;5010467;28;20050;-61
2023/01/16 08:03:37;;;;;;;1.70;1.08;;;2.60;78.70;;;;;;5016784;28;20092;-60
2023/01/16 08:06:03;;;;;;;3.60;1.42;;;2.70;78.60;;;;;;5014080;28;20433;-59
2023/01/16 08:08:29;;;;;;;3.60;1.70;;;2.70;78.60;;;;;;5015773;28;20045;-59
2023/01/16 08:10:56;;;;;;;2.63;1.48;;;2.70;78.50;;;;;;5015828;28;20043;-59
2023/01/16 08:13:22;;;;;;;4.68;2.38;;;2.80;78.30;;;;;;5013592;28;20037;-56
2023/01/16 08:15:50;;;;;;;13.70;5.78;;;2.80;78.00;;;;;;5015938;28;20034;-59
2023/01/16 08:18:17;;;;;;;9.82;3.85;;;2.80;78.00;;;;;;5015409;28;20042;-61
2023/01/16 08:20:44;;;;;;;9.10;3.92;;;2.80;78.10;;;;;;5012352;28;20025;-60
2023/01/16 08:23:11;;;;;;;6.97;3.92;;;2.80;78.10;;;;;;5015021;28;20041;-61
2023/01/16 08:25:37;;;;;;;6.78;2.90;;;2.80;78.10;;;;;;5015525;28;20041;-58
2023/01/16 08:28:02;;;;;;;3.63;2.80;;;2.90;78.30;;;;;;5016580;28;20030;-59
2023/01/16 08:30:28;;;;;;;4.95;2.45;;;2.90;78.20;;;;;;5012383;28;20042;-60
2023/01/16 08:32:58;;;;;;;4.05;2.60;;;3.00;78.20;;;;;;5015920;28;20172;-59
2023/01/16 08:35:23;;;;;;;3.78;1.80;;;3.00;78.50;;;;;;5015310;28;20050;-57
2023/01/16 08:37:50;;;;;;;2.92;1.80;;;3.00;78.50;;;;;;5013796;28;20115;-57
2023/01/16 08:40:16;;;;;;;4.78;1.80;;;3.10;78.50;;;;;;5014856;28;20042;-60
2023/01/16 08:53:43;;;;;;;3.20;1.35;;;3.20;78.50;;;;;;5015633;28;20036;-58
2023/01/16 08:56:08;;;;;;;5.15;1.92;;;3.20;78.20;;;;;;5014259;28;20033;-61
2023/01/16 08:58:34;;;;;;;5.30;3.30;;;3.30;78.00;;;;;;5012876;28;20065;-59
2023/01/16 09:00:59;;;;;;;5.00;3.05;;;3.20;77.80;;;;;;5014497;28;20061;-59
2023/01/16 09:03:25;;;;;;;4.45;2.55;;;3.30;77.90;;;;;;5011105;28;20045;-59
2023/01/16 09:05:50;;;;;;;4.18;2.42;;;3.20;77.80;;;;;;5014548;28;20117;-59
2023/01/16 09:08:16;;;;;;;4.97;2.20;;;3.20;77.90;;;;;;5012432;28;20030;-59
2023/01/16 09:13:48;;;;;;;2.25;1.60;;;3.20;78.00;;;;;;5013259;28;20025;-56
2023/01/16 09:16:11;;;;;;;2.63;0.98;;;3.20;78.10;;;;;;5014590;28;20160;-59
2023/01/16 09:18:37;;;;;;;1.40;0.85;;;3.10;78.10;;;;;;5016136;28;20520;-59
2023/01/16 09:21:03;;;;;;;3.42;0.90;;;3.20;78.20;;;;;;5014518;28;20034;-60
2023/01/16 09:23:28;;;;;;;1.50;0.90;;;3.20;78.20;;;;;;5012150;28;20160;-59
2023/01/16 09:25:54;;;;;;;1.23;0.90;;;3.20;78.30;;;;;;5013979;28;20033;-60
2023/01/16 09:28:19;;;;;;;7.15;2.67;;;3.30;78.30;;;;;;5014849;28;20065;-60
2023/01/16 09:30:45;;;;;;;4.82;3.05;;;3.30;78.40;;;;;;5011204;28;20028;-61
2023/01/16 09:33:10;;;;;;;6.00;3.72;;;3.30;78.50;;;;;;5015593;28;20038;-57
2023/01/16 09:35:36;;;;;;;6.55;3.60;;;3.40;78.50;;;;;;5015637;28;20026;-58
2023/01/16 09:38:01;;;;;;;2.22;1.67;;;3.50;78.50;;;;;;5014853;28;20508;-59
2023/01/16 09:40:27;;;;;;;2.55;1.70;;;3.50;78.40;;;;;;5014463;28;20195;-59
2023/01/16 09:45:55;;;;;;;2.67;1.92;;;3.60;78.50;;;;;;5013689;28;20061;-59
2023/01/16 09:48:45;;;;;;;4.22;1.85;;;3.60;78.50;;;;;;5015043;28;20448;-61
2023/01/16 09:51:19;;;;;;;2.60;1.92;;;3.50;78.60;;;;;;5015900;28;20476;-62
2023/01/16 09:59:40;;;;;;;6.93;3.22;;;3.50;78.50;;;;;;5016741;28;20088;-62
2023/01/16 10:02:18;;;;;;;4.43;2.58;;;3.50;78.50;;;;;;5015492;28;20041;-60
2023/01/16 10:04:45;;;;;;;3.13;2.20;;;3.40;79.30;;;;;;5013990;28;20034;-61
2023/01/16 10:07:16;;;;;;;7.75;3.67;;;3.50;78.50;;;;;;5013436;28;20503;-61
2023/01/16 10:09:51;;;;;;;5.47;3.10;;;3.50;78.60;;;;;;5014485;28;20038;-60
2023/01/16 10:12:17;;;;;;;5.05;2.90;;;3.40;78.60;;;;;;5011379;28;20540;-60
2023/01/16 10:15:01;;;;;;;5.00;2.42;;;3.40;78.70;;;;;;5013142;28;20048;-59
2023/01/16 10:17:34;;;;;;;7.22;3.72;;;3.50;79.20;;;;;;5014340;28;20045;-60
2023/01/16 10:20:00;;;;;;;6.47;3.42;;;3.50;79.10;;;;;;5009518;28;20145;-58
2023/01/16 10:22:54;;;;;;;6.63;3.60;;;3.50;79.20;;;;;;5014703;28;20506;-61
2023/01/16 10:25:28;;;;;;;5.90;3.13;;;3.50;79.40;;;;;;5010788;28;20037;-61
2023/01/16 10:28:09;;;;;;;6.03;3.50;;;3.60;79.20;;;;;;5012635;28;20544;-59
2023/01/16 10:30:44;;;;;;;7.40;3.50;;;3.50;79.20;;;;;;5008653;28;20121;-59
2023/01/16 10:33:39;;;;;;;4.68;2.50;;;3.60;79.40;;;;;;5015401;28;20434;-58
2023/01/16 10:36:08;;;;;;;6.40;2.80;;;3.50;79.20;;;;;;5014423;28;20030;-60
2023/01/16 10:38:55;;;;;;;4.38;2.60;;;3.50;79.00;;;;;;5011255;28;20037;-59
2023/01/16 10:49:54;;;;;;;3.90;2.30;;;3.50;79.20;;;;;;5012135;28;20084;-58
2023/01/16 10:52:19;;;;;;;2.58;2.20;;;3.50;79.10;;;;;;5014887;28;20034;-60
2023/01/16 10:54:45;;;;;;;2.50;1.70;;;3.60;79.20;;;;;;5016190;28;20041;-58
2023/01/16 10:57:18;;;;;;;4.90;2.88;;;3.60;79.00;;;;;;5015529;28;20686;-58
2023/01/16 10:59:46;;;;;;;4.53;2.47;;;3.60;78.80;;;;;;5014669;28;20091;-59
2023/01/16 11:02:22;;;;;;;2.40;1.95;;;3.60;78.80;;;;;;5014886;28;20409;-59
2023/01/16 11:04:48;;;;;;;9.48;3.20;;;3.70;78.70;;;;;;5013376;28;20040;-60
2023/01/16 11:07:19;;;;;;;3.22;2.08;;;3.70;78.50;;;;;;5013660;28;20030;-60
2023/01/16 11:09:46;;;;;;;2.88;1.90;;;3.70;78.50;;;;;;5014229;28;20298;-56
2023/01/16 11:20:45;;;;;;;4.63;2.28;;;3.70;78.50;;;;;;5018160;28;20083;-57
2023/01/16 11:23:20;;;;;;;3.42;2.50;;;3.70;78.50;;;;;;5018335;28;20040;-59
2023/01/16 11:25:48;;;;;;;6.43;2.60;;;3.70;78.60;;;;;;5015531;28;20052;-60
2023/01/16 11:28:23;;;;;;;3.47;2.10;;;3.80;78.80;;;;;;5018378;28;20069;-60
2023/01/16 11:30:53;;;;;;;2.63;2.20;;;3.80;78.80;;;;;;5016647;28;20049;-59
2023/01/16 11:33:22;;;;;;;3.55;2.10;;;3.80;78.80;;;;;;5016496;28;20045;-61
2023/01/16 11:35:54;;;;;;;4.05;2.10;;;3.80;79.40;;;;;;5018146;28;20065;-60
2023/01/16 11:38:22;;;;;;;4.65;2.55;;;3.90;78.50;;;;;;5017061;28;20040;-60
2023/01/16 11:46:33;;;;;;;4.97;2.20;;;3.90;78.60;;;;;;5027368;28;20115;-58
2023/01/16 11:49:14;;;;;;;2.53;1.75;;;3.90;78.10;;;;;;5030136;28;20045;-59
2023/01/16 11:51:39;;;;;;;3.72;2.15;;;3.90;78.00;;;;;;5028953;28;20057;-61
2023/01/16 11:54:12;;;;;;;1.52;1.10;;;4.00;78.00;;;;;;5029664;28;20084;-60
2023/01/16 11:57:07;;;;;;;2.58;1.02;;;4.00;77.60;;;;;;5031412;28;20061;-60
2023/01/16 11:59:49;;;;;;;1.98;1.25;;;4.00;77.50;;;;;;5028358;28;20060;-61
2023/01/16 12:02:35;;;;;;;2.05;1.40;;;4.10;78.50;;;;;;5027686;28;20064;-60
2023/01/16 12:05:53;;;;;;;3.97;1.40;;;4.20;77.30;;;;;;5052870;28;20084;-58
2023/01/16 12:08:40;;;;;;;1.95;1.25;;;4.20;77.00;;;;;;5053288;28;20112;-59
2023/01/16 12:11:12;;;;;;;2.10;1.20;;;4.30;77.30;;;;;;5051529;28;20037;-60
2023/01/16 12:16:50;;;;;;;4.93;1.88;;;4.40;77.10;;;;;;5053239;28;20040;-60
2023/01/16 12:19:50;;;;;;;2.78;1.90;;;4.40;77.10;;;;;;5049718;28;20049;-60
2023/01/16 12:22:31;;;;;;;4.30;2.72;;;4.50;76.70;;;;;;5048277;28;20033;-58
2023/01/16 12:25:16;;;;;;;3.70;1.98;;;4.60;76.50;;;;;;5048484;28;20029;-58
2023/01/16 12:28:00;;;;;;;;;;;4.60;76.60;;;;;;5050732;28;20044;-60
2023/01/16 12:31:00;;;;;;;1.35;1.17;;;4.60;76.30;;;;;;5050542;28;19917;-58
2023/01/16 12:33:38;;;;;;;2.15;0.90;;;4.70;76.20;;;;;;5050571;28;20048;-60
2023/01/16 12:36:11;;;;;;;2.75;1.42;;;4.70;76.00;;;;;;5049401;28;20029;-58
2023/01/16 12:38:57;;;;;;;2.08;1.40;;;4.70;76.20;;;;;;5049726;28;20113;-59
2023/01/16 12:45:02;;;;;;;4.72;3.47;;;4.70;75.70;;;;;;5048211;28;20503;-58
2023/01/16 12:47:46;;;;;;;7.03;3.15;;;4.70;75.60;;;;;;5034026;28;20042;-58
2023/01/16 12:50:50;;;;;;;5.43;2.92;;;4.70;75.70;;;;;;5051575;28;20059;-59
2023/01/16 12:53:45;;;;;;;4.85;2.60;;;4.70;75.30;;;;;;5048717;28;20029;-59
2023/01/16 12:56:23;;;;;;;;;;;4.70;75.50;;;;;;5040063;28;20042;-59
2023/01/16 12:59:02;;;;;;;4.72;1.67;;;4.70;75.70;;;;;;5038082;28;19913;-59
2023/01/16 13:01:33;;;;;;;3.45;2.40;;;4.60;75.60;;;;;;5039563;28;20456;-58
2023/01/16 13:04:02;;;;;;;2.95;2.10;;;4.60;75.50;;;;;;5039085;28;20026;-59
2023/01/16 13:06:39;;;;;;;3.47;2.10;;;4.60;75.60;;;;;;5038815;28;20084;-60
2023/01/16 13:09:32;;;;;;;4.72;1.70;;;4.60;75.50;;;;;;5037948;28;20030;-59
2023/01/16 13:14:58;;;;;;;2.47;1.75;;;4.70;75.50;;;;;;5037844;28;20463;-59
2023/01/16 13:17:33;;;;;;;2.95;1.70;;;4.70;75.60;;;;;;5040437;28;20068;-60
2023/01/16 13:20:03;;;;;;;3.10;1.58;;;4.70;75.50;;;;;;5038632;28;20124;-60
2023/01/16 13:22:41;;;;;;;2.15;1.33;;;4.70;75.50;;;;;;5039261;28;20063;-59
2023/01/16 13:25:20;;;;;;;3.60;1.38;;;4.70;75.30;;;;;;5038009;28;20069;-60
2023/01/16 13:27:55;;;;;;;2.83;1.63;;;4.80;75.30;;;;;;5036584;28;20029;-58
2023/01/16 13:30:20;;;;;;;;;;;4.80;75.20;;;;;;5038364;28;20553;-59
2023/01/16 13:33:03;;;;;;;4.18;1.90;;;4.80;74.90;;;;;;5037584;28;20035;-60
2023/01/16 13:35:44;;;;;;;4.15;2.00;;;4.90;75.10;;;;;;5038776;28;20033;-60
2023/01/16 13:38:43;;;;;;;5.85;2.80;;;4.90;75.10;;;;;;5038874;28;20037;-57
2023/01/16 13:41:17;;;;;;;3.28;2.20;;;4.90;75.20;;;;;;5038144;28;20057;-58
2023/01/16 13:46:36;;;;;;;2.90;2.00;;;4.90;75.30;;;;;;5037942;28;20102;-58
2023/01/16 13:49:04;;;;;;;5.70;3.00;;;5.00;75.50;;;;;;5037494;28;20616;-57
2023/01/16 13:51:39;;;;;;;5.70;2.70;;;4.90;75.50;;;;;;5038327;28;20075;-59
2023/01/16 13:54:14;;;;;;;5.18;2.60;;;5.00;75.70;;;;;;5038300;28;20041;-55
2023/01/16 13:56:40;;;;;;;2.03;1.58;;;5.00;76.60;;;;;;5037954;28;20041;-60
2023/01/16 13:59:11;;;;;;;3.05;1.60;;;5.00;75.50;;;;;;5038013;28;20160;-60
2023/01/16 14:01:39;;;;;;;2.03;1.35;;;5.00;75.20;;;;;;5039116;28;20041;-58
2023/01/16 14:04:27;;;;;;;2.22;1.60;;;5.00;75.00;;;;;;5037904;28;20032;-58
2023/01/16 14:10:10;;;;;;;3.72;1.65;;;5.00;74.70;;;;;;5038477;28;20519;-60
2023/01/16 14:13:29;;;;;;;4.35;1.83;;;5.00;74.30;;;;;;5033988;28;20492;-60
2023/01/16 14:18:56;;;;;;;2.05;1.35;;;5.00;74.60;;;;;;5002599;28;20037;-60
2023/01/16 14:21:37;;;;;;;2.97;1.50;;;5.00;74.00;;;;;;5027387;28;20046;-60
2023/01/16 14:24:14;;;;;;;3.30;1.40;;;5.00;73.80;;;;;;5038217;28;20510;-59
2023/01/16 14:26:51;;;;;;;3.40;1.23;;;5.00;74.00;;;;;;5037499;28;20125;-60
2023/01/16 14:29:27;;;;;;;3.83;1.50;;;5.00;73.20;;;;;;5034027;28;20404;-60
2023/01/16 14:32:12;;;;;;;3.08;1.38;;;5.00;73.00;;;;;;5035590;28;20125;-58
2023/01/16 14:34:58;;;;;;;9.02;2.45;;;5.00;73.30;;;;;;5032062;28;20045;-60